Time;durP1;ratioP1;P1;durP2;ratioP2;P2;SDS_P1;SDS_P2;PMS_P1;PMS_P2;Temp;Humidity;BMP_temperature;BMP_pressure;BME280_temperature;BME280_humidity;BME280_pressure;Samples;Min_cycle;Max_cycle;Signal;HPM_P1;HPM_P2
2022/04/19 00:00:12;;;;;;;;;;;;;;;;;;5123214;28;19919;-79
2022/04/19 00:02:37;;;;;;;;;;;;;;;;;;5121016;28;19916;-79
2022/04/19 00:05:03;;;;;;;;;;;;;;;;;;5120896;28;20365;-79
2022/04/19 00:07:28;;;;;;;;;;;;;;;;;;5101569;28;19942;-80
2022/04/19 00:09:54;;;;;;;;;;;;;;;;;;5101063;28;19945;-79
2022/04/19 00:12:19;;;;;;;;;;;;;;;;;;5100980;28;20002;-79
2022/04/19 00:14:45;;;;;;;;;;;;;;;;;;5099558;28;19916;-79
2022/04/19 00:17:11;;;;;;;;;;;;;;;;;;5099397;28;20041;-79
2022/04/19 00:19:36;;;;;;;;;;;;;;;;;;5099551;28;19977;-79
2022/04/19 00:22:02;;;;;;;;;;;;;;;;;;5099372;28;19927;-79
2022/04/19 00:24:28;;;;;;;;;;;;;;;;;;5098479;28;19915;-79
2022/04/19 00:26:55;;;;;;;;;;;;;;;;;;5099259;28;19920;-79
2022/04/19 00:29:20;;;;;;;;;;;;;;;;;;5097814;28;19955;-79
2022/04/19 00:31:45;;;;;;;;;;;;;;;;;;5093030;28;19917;-79
2022/04/19 00:34:11;;;;;;;;;;;;;;;;;;5076026;28;20328;-79
2022/04/19 00:36:37;;;;;;;;;;;;;;;;;;5076478;28;19916;-79
2022/04/19 00:39:03;;;;;;;;;;;;;;;;;;5075040;28;19956;-79
2022/04/19 00:41:28;;;;;;;;;;;;;;;;;;5075859;28;19925;-79
2022/04/19 00:43:54;;;;;;;;;;;;;;;;;;5074488;28;20531;-79
2022/04/19 00:46:20;;;;;;;;;;;;;;;;;;5093366;28;19915;-79
2022/04/19 00:48:46;;;;;;;;;;;;;;;;;;5095163;28;19919;-79
2022/04/19 00:51:12;;;;;;;;;;;;;;;;;;5095349;28;19973;-79
2022/04/19 00:53:37;;;;;;;;;;;;;;;;;;5098468;28;19955;-79
2022/04/19 00:56:03;;;;;;;;;;;;;;;;;;5095346;28;19923;-79
2022/04/19 00:58:28;;;;;;;;;;;;;;;;;;5095604;28;20516;-79
2022/04/19 01:00:54;;;;;;;;;;;;;;;;;;5096259;28;19916;-79
2022/04/19 01:03:21;;;;;;;;;;;;;;;;;;5091149;28;20042;-79
2022/04/19 01:05:48;;;;;;;;;;;;;;;;;;5074960;28;19916;-79
2022/04/19 01:08:17;;;;;;;;;;;;;;;;;;5086346;28;19920;-79
2022/04/19 01:10:43;;;;;;;;;;;;;;;;;;5078552;28;19925;-79
2022/04/19 01:13:17;;;;;;;;;;;;;;;;;;5076950;28;19938;-79
2022/04/19 01:15:49;;;;;;;;;;;;;;;;;;5077886;28;19916;-79
2022/04/19 01:18:17;;;;;;;;;;;;;;;;;;5078668;28;19927;-79
2022/04/19 01:20:43;;;;;;;;;;;;;;;;;;5076750;28;19917;-79
2022/04/19 01:23:19;;;;;;;;;;;;;;;;;;5077027;28;19916;-79
2022/04/19 01:25:45;;;;;;;;;;;;;;;;;;5078509;28;19917;-78
2022/04/19 01:28:10;;;;;;;;;;;;;;;;;;5060439;28;19922;-80
2022/04/19 01:30:36;;;;;;;;;;;;;;;;;;5081007;28;20455;-79
2022/04/19 01:33:02;;;;;;;;;;;;;;;;;;5089733;28;19938;-79
2022/04/19 01:35:28;;;;;;;;;;;;;;;;;;5083033;28;19916;-79
2022/04/19 01:37:58;;;;;;;;;;;;;;;;;;5102981;28;19916;-79
2022/04/19 01:40:31;;;;;;;;;;;;;;;;;;5102824;28;19916;-79
2022/04/19 01:42:58;;;;;;;;;;;;;;;;;;5102591;28;20004;-79
2022/04/19 01:45:28;;;;;;;;;;;;;;;;;;5101813;28;19916;-79
2022/04/19 01:47:57;;;;;;;;;;;;;;;;;;5101317;28;19916;-79
2022/04/19 01:50:26;;;;;;;;;;;;;;;;;;5100948;28;19916;-79
2022/04/19 01:52:52;;;;;;;;;;;;;;;;;;5100815;28;19916;-79
2022/04/19 01:55:22;;;;;;;;;;;;;;;;;;5081267;28;19916;-79
2022/04/19 01:57:51;;;;;;;;;;;;;;;;;;5079990;28;19924;-79
2022/04/19 02:00:18;;;;;;;;;;;;;;;;;;5090814;28;19973;-79
2022/04/19 02:02:48;;;;;;;;;;;;;;;;;;5120281;28;19922;-79
2022/04/19 02:05:18;;;;;;;;;;;;;;;;;;5121385;28;20301;-79
2022/04/19 02:07:44;;;;;;;;;;;;;;;;;;5120093;28;20328;-79
2022/04/19 02:10:11;;;;;;;;;;;;;;;;;;5119953;28;19922;-79
2022/04/19 02:12:36;;;;;;;;;;;;;;;;;;5120154;28;19989;-79
2022/04/19 02:15:20;;;;;;;;;;;;;;;;;;5121709;28;19923;-78
2022/04/19 02:17:52;;;;;;;;;;;;;;;;;;5112739;28;19923;-79
2022/04/19 02:20:18;;;;;;;;;;;;;;;;;;5097558;28;20278;-78
2022/04/19 02:22:44;;;;;;;;;;;;;;;;;;5099190;28;19923;-78
2022/04/19 02:25:11;;;;;;;;;;;;;;;;;;5099040;28;19965;-77
2022/04/19 02:27:37;;;;;;;;;;;;;;;;;;5098131;28;20247;-78
2022/04/19 02:30:04;;;;;;;;;;;;;;;;;;5100133;28;19966;-78
2022/04/19 02:32:31;;;;;;;;;;;;;;;;;;5099427;28;20394;-78
2022/04/19 02:34:57;;;;;;;;;;;;;;;;;;5096775;28;19916;-77
2022/04/19 02:37:23;;;;;;;;;;;;;;;;;;5097093;28;19916;-77
2022/04/19 02:39:50;;;;;;;;;;;;;;;;;;5096892;28;19923;-78
2022/04/19 02:42:15;;;;;;;;;;;;;;;;;;5098085;28;19920;-78
2022/04/19 02:44:41;;;;;;;;;;;;;;;;;;5096612;28;20005;-78
2022/04/19 02:47:11;;;;;;;;;;;;;;;;;;5096552;28;20258;-77
2022/04/19 02:49:40;;;;;;;;;;;;;;;;;;5096183;28;19916;-79
2022/04/19 02:52:05;;;;;;;;;;;;;;;;;;5078959;28;19923;-78
2022/04/19 02:54:31;;;;;;;;;;;;;;;;;;5097951;28;20320;-77
2022/04/19 02:56:57;;;;;;;;;;;;;;;;;;5096040;28;19925;-76
2022/04/19 02:59:22;;;;;;;;;;;;;;;;;;5095111;28;19920;-77
2022/04/19 03:01:48;;;;;;;;;;;;;;;;;;5096683;28;19920;-77
2022/04/19 03:04:14;;;;;;;;;;;;;;;;;;5095074;28;20402;-76
2022/04/19 03:06:39;;;;;;;;;;;;;;;;;;5094430;28;19959;-76
2022/04/19 03:09:05;;;;;;;;;;;;;;;;;;5078026;28;19920;-76
2022/04/19 03:11:32;;;;;;;;;;;;;;;;;;5096124;28;19976;-76
2022/04/19 03:13:59;;;;;;;;;;;;;;;;;;5077047;28;19920;-76
2022/04/19 03:16:26;;;;;;;;;;;;;;;;;;5094226;28;19978;-76
2022/04/19 03:18:52;;;;;;;;;;;;;;;;;;5094350;28;19920;-76
2022/04/19 03:21:17;;;;;;;;;;;;;;;;;;5094489;28;19920;-77
2022/04/19 03:29:13;;;;;;;;;;;;;;;;;;5074297;28;20066;-77
2022/04/19 03:31:39;;;;;;;;;;;;;;;;;;5074131;28;20396;-76
2022/04/19 03:34:05;;;;;;;;;;;;;;;;;;5074243;28;19977;-76
2022/04/19 03:36:32;;;;;;;;;;;;;;;;;;5073561;28;19921;-76
2022/04/19 03:39:01;;;;;;;;;;;;;;;;;;5073727;28;19958;-76
2022/04/19 03:41:26;;;;;;;;;;;;;;;;;;5073985;28;19917;-76
2022/04/19 03:43:52;;;;;;;;;;;;;;;;;;5074312;28;20330;-76
2022/04/19 03:46:19;;;;;;;;;;;;;;;;;;5095014;28;19920;-76
2022/04/19 03:48:44;;;;;;;;;;;;;;;;;;5094057;28;20323;-76
2022/04/19 03:51:11;;;;;;;;;;;;;;;;;;5093816;28;20374;-77
2022/04/19 03:53:36;;;;;;;;;;;;;;;;;;5095069;28;19926;-76
2022/04/19 03:56:03;;;;;;;;;;;;;;;;;;5076619;28;19916;-76
2022/04/19 03:58:30;;;;;;;;;;;;;;;;;;5076782;28;20267;-76
2022/04/19 04:00:55;;;;;;;;;;;;;;;;;;5071987;28;20398;-76
2022/04/19 04:03:24;;;;;;;;;;;;;;;;;;5074924;28;19916;-76
2022/04/19 04:05:49;;;;;;;;;;;;;;;;;;5074495;28;20355;-76
2022/04/19 04:08:15;;;;;;;;;;;;;;;;;;5074716;28;19916;-76
2022/04/19 04:10:51;;;;;;;;;;;;;;;;;;5073506;28;19924;-77
2022/04/19 04:13:17;;;;;;;;;;;;;;;;;;5073330;28;19923;-76
2022/04/19 04:15:42;;;;;;;;;;;;;;;;;;5083155;28;19916;-76
2022/04/19 04:18:08;;;;;;;;;;;;;;;;;;5094519;28;19916;-77
2022/04/19 04:20:34;;;;;;;;;;;;;;;;;;5093208;28;19912;-76
2022/04/19 04:23:00;;;;;;;;;;;;;;;;;;5093487;28;19962;-76
2022/04/19 04:25:25;;;;;;;;;;;;;;;;;;5093255;28;19919;-76
2022/04/19 04:27:50;;;;;;;;;;;;;;;;;;5093296;28;19916;-76
2022/04/19 04:30:16;;;;;;;;;;;;;;;;;;5093059;28;19920;-76
2022/04/19 04:32:50;;;;;;;;;;;;;;;;;;5093171;28;20313;-76
2022/04/19 04:35:16;;;;;;;;;;;;;;;;;;5093234;28;20007;-78
2022/04/19 04:37:42;;;;;;;;;;;;;;;;;;5093177;28;19965;-76
2022/04/19 04:40:08;;;;;;;;;;;;;;;;;;5093183;28;20024;-76
2022/04/19 04:42:50;;;;;;;;;;;;;;;;;;5088307;28;19916;-76
2022/04/19 04:45:16;;;;;;;;;;;;;;;;;;5074084;28;19916;-76
2022/04/19 04:50:28;;;;;;;;;;;;;;;;;;5072864;28;19916;-76
2022/04/19 04:52:55;;;;;;;;;;;;;;;;;;5072698;28;20290;-76
2022/04/19 04:55:23;;;;;;;;;;;;;;;;;;5072805;28;19973;-76
2022/04/19 04:57:48;;;;;;;;;;;;;;;;;;5072086;28;19924;-76
2022/04/19 05:00:14;;;;;;;;;;;;;;;;;;5074165;28;19928;-76
2022/04/19 05:02:53;;;;;;;;;;;;;;;;;;5092746;28;20002;-76
2022/04/19 05:05:18;;;;;;;;;;;;;;;;;;5092547;28;19916;-76
2022/04/19 05:07:43;;;;;;;;;;;;;;;;;;5093827;28;19969;-76
2022/04/19 05:10:09;;;;;;;;;;;;;;;;;;5092683;28;19919;-76
2022/04/19 05:12:35;;;;;;;;;;;;;;;;;;5092222;28;19916;-76
2022/04/19 05:15:01;;;;;;;;;;;;;;;;;;5092718;28;19923;-76
2022/04/19 05:17:29;;;;;;;;;;;;;;;;;;5092297;28;19920;-76
2022/04/19 05:19:55;;;;;;;;;;;;;;;;;;5092478;28;19920;-76
2022/04/19 05:22:21;;;;;;;;;;;;;;;;;;5092647;28;20011;-76
2022/04/19 05:24:47;;;;;;;;;;;;;;;;;;5093972;28;20570;-76
2022/04/19 05:27:13;;;;;;;;;;;;;;;;;;5092519;28;19923;-76
2022/04/19 05:29:39;;;;;;;;;;;;;;;;;;5092133;28;20397;-76
2022/04/19 05:32:05;;;;;;;;;;;;;;;;;;5087855;28;19955;-76
2022/04/19 05:34:30;;;;;;;;;;;;;;;;;;5055335;28;19938;-76
2022/04/19 05:36:58;;;;;;;;;;;;;;;;;;5055869;28;20007;-75
2022/04/19 05:39:23;;;;;;;;;;;;;;;;;;5070882;28;20016;-75
2022/04/19 05:41:49;;;;;;;;;;;;;;;;;;5071159;28;19935;-75
2022/04/19 05:44:15;;;;;;;;;;;;;;;;;;5055028;28;19919;-75
2022/04/19 05:46:40;;;;;;;;;;;;;;;;;;5072301;28;19916;-75
2022/04/19 05:49:06;;;;;;;;;;;;;;;;;;5091147;28;19916;-75
2022/04/19 05:51:33;;;;;;;;;;;;;;;;;;5089949;28;19916;-75
2022/04/19 05:54:00;;;;;;;;;;;;;;;;;;5089901;28;19923;-74
2022/04/19 05:56:26;;;;;;;;;;;;;;;;;;5089551;28;19920;-74
2022/04/19 05:58:51;;;;;;;;;;;;;;;;;;5089831;28;20378;-74
2022/04/19 06:01:18;;;;;;;;;;;;;;;;;;5085044;28;19923;-74
2022/04/19 06:06:29;;;;;;;;;;;;;;;;;;5071831;28;19920;-74
2022/04/19 06:08:55;;;;;;;;;;;;;;;;;;5073176;28;19939;-74
2022/04/19 06:11:21;;;;;;;;;;;;;;;;;;5055214;28;20003;-74
2022/04/19 06:13:46;;;;;;;;;;;;;;;;;;5071954;28;20307;-75
2022/04/19 06:16:13;;;;;;;;;;;;;;;;;;5071434;28;19959;-75
2022/04/19 06:18:42;;;;;;;;;;;;;;;;;;5071983;28;19920;-75
2022/04/19 06:21:11;;;;;;;;;;;;;;;;;;5071854;28;19917;-75
2022/04/19 06:23:37;;;;;;;;;;;;;;;;;;5076262;28;19966;-75
2022/04/19 06:26:03;;;;;;;;;;;;;;;;;;5075297;28;19950;-75
2022/04/19 06:28:30;;;;;;;;;;;;;;;;;;5059027;28;20308;-75
2022/04/19 06:31:13;;;;;;;;;;;;;;;;;;5081681;28;19939;-75
2022/04/19 06:33:42;;;;;;;;;;;;;;;;;;5095594;28;19916;-75
2022/04/19 06:36:09;;;;;;;;;;;;;;;;;;5096287;28;19923;-75
2022/04/19 06:38:35;;;;;;;;;;;;;;;;;;5091108;28;20306;-77
2022/04/19 06:41:00;;;;;;;;;;;;;;;;;;5075107;28;19923;-77
2022/04/19 06:43:26;;;;;;;;;;;;;;;;;;5075361;28;20301;-77
2022/04/19 06:45:56;;;;;;;;;;;;;;;;;;5075225;28;19916;-77
2022/04/19 06:48:26;;;;;;;;;;;;;;;;;;5075156;28;19920;-77
2022/04/19 06:50:52;;;;;;;;;;;;;;;;;;5076191;28;19969;-77
2022/04/19 06:53:18;;;;;;;;;;;;;;;;;;5058157;28;19924;-76
2022/04/19 06:55:53;;;;;;;;;;;;;;;;;;5074759;28;19926;-77
2022/04/19 06:58:19;;;;;;;;;;;;;;;;;;5075006;28;19943;-77
2022/04/19 07:00:45;;;;;;;;;;;;;;;;;;5074837;28;19923;-77
2022/04/19 07:03:11;;;;;;;;;;;;;;;;;;5075015;28;19923;-77
2022/04/19 07:05:55;;;;;;;;;;;;;;;;;;5114822;28;20374;-77
2022/04/19 07:08:20;;;;;;;;;;;;;;;;;;5098455;28;19915;-77
2022/04/19 07:10:47;;;;;;;;;;;;;;;;;;5115471;28;19916;-77
2022/04/19 07:13:31;;;;;;;;;;;;;;;;;;5116237;28;20396;-77
2022/04/19 07:15:57;;;;;;;;;;;;;;;;;;5114744;28;20395;-75
2022/04/19 07:18:23;;;;;;;;;;;;;;;;;;5116887;28;20014;-76
2022/04/19 07:29:02;;;;;;;;;;;;;;;;;;5074801;28;19916;-77
2022/04/19 07:31:28;;;;;;;;;;;;;;;;;;5056368;28;19920;-76
2022/04/19 07:33:56;;;;;;;;;;;;;;;;;;5074890;28;20318;-80
2022/04/19 07:36:21;;;;;;;;;;;;;;;;;;5082426;28;19947;-78
2022/04/19 07:38:47;;;;;;;;;;;;;;;;;;5073507;28;20011;-77
2022/04/19 07:41:39;;;;;;;;;;;;;;;;;;5075223;28;20332;-76
2022/04/19 07:44:06;;;;;;;;;;;;;;;;;;5073962;28;19923;-76
2022/04/19 07:46:32;;;;;;;;;;;;;;;;;;5075103;28;19999;-74
2022/04/19 07:48:57;;;;;;;;;;;;;;;;;;5071993;28;20049;-75
2022/04/19 07:51:23;;;;;;;;;;;;;;;;;;5071320;28;20549;-74
2022/04/19 07:53:49;;;;;;;;;;;;;;;;;;5072834;28;19920;-75
2022/04/19 07:56:14;;;;;;;;;;;;;;;;;;5070882;28;19920;-74
2022/04/19 07:58:42;;;;;;;;;;;;;;;;;;5072749;28;20019;-74
2022/04/19 08:01:08;;;;;;;;;;;;;;;;;;5072770;28;19920;-75
2022/04/19 08:03:35;;;;;;;;;;;;;;;;;;5087975;28;19995;-74
2022/04/19 08:06:00;;;;;;;;;;;;;;;;;;5073218;28;19917;-75
2022/04/19 08:08:26;;;;;;;;;;;;;;;;;;5056626;28;19923;-75
2022/04/19 08:10:51;;;;;;;;;;;;;;;;;;5074732;28;20054;-75
2022/04/19 08:13:17;;;;;;;;;;;;;;;;;;5073662;28;19969;-74
2022/04/19 08:15:43;;;;;;;;;;;;;;;;;;5073117;28;20307;-74
2022/04/19 08:18:16;;;;;;;;;;;;;;;;;;5073005;28;20007;-75
2022/04/19 08:20:45;;;;;;;;;;;;;;;;;;5073131;28;19956;-75
2022/04/19 08:23:11;;;;;;;;;;;;;;;;;;5084114;28;20000;-75
2022/04/19 08:25:37;;;;;;;;;;;;;;;;;;5093268;28;19923;-75
2022/04/19 08:28:03;;;;;;;;;;;;;;;;;;5093222;28;19934;-74
2022/04/19 08:30:29;;;;;;;;;;;;;;;;;;5093229;28;19916;-75
2022/04/19 08:32:55;;;;;;;;;;;;;;;;;;5093182;28;19976;-76
2022/04/19 08:35:20;;;;;;;;;;;;;;;;;;5094466;28;19916;-75
2022/04/19 08:37:46;;;;;;;;;;;;;;;;;;5094102;28;19923;-75
2022/04/19 08:40:12;;;;;;;;;;;;;;;;;;5092746;28;20344;-75
2022/04/19 08:42:40;;;;;;;;;;;;;;;;;;5092942;28;19916;-74
2022/04/19 08:45:07;;;;;;;;;;;;;;;;;;5093720;28;20366;-75
2022/04/19 08:47:33;;;;;;;;;;;;;;;;;;5093753;28;19916;-75
2022/04/19 08:50:03;;;;;;;;;;;;;;;;;;5093966;28;20346;-74
2022/04/19 08:52:28;;;;;;;;;;;;;;;;;;5094401;28;19916;-74
2022/04/19 08:57:38;;;;;;;;;;;;;;;;;;5093954;28;19920;-75
2022/04/19 09:00:05;;;;;;;;;;;;;;;;;;5094114;28;19928;-75
2022/04/19 09:02:32;;;;;;;;;;;;;;;;;;5094163;28;19916;-74
2022/04/19 09:05:13;;;;;;;;;;;;;;;;;;5092495;28;20040;-74
2022/04/19 09:07:39;;;;;;;;;;;;;;;;;;5094103;28;19916;-75
2022/04/19 09:10:06;;;;;;;;;;;;;;;;;;5072072;28;19916;-75
2022/04/19 09:12:32;;;;;;;;;;;;;;;;;;5073541;28;19921;-73
2022/04/19 09:15:06;;;;;;;;;;;;;;;;;;5072503;28;19983;-74
2022/04/19 09:17:35;;;;;;;;;;;;;;;;;;5071975;28;20010;-74
2022/04/19 09:20:07;;;;;;;;;;;;;;;;;;5072440;28;20415;-74
2022/04/19 09:22:43;;;;;;;;;;;;;;;;;;5072766;28;20332;-73
2022/04/19 09:25:18;;;;;;;;;;;;;;;;;;5071938;28;19917;-74
2022/04/19 09:27:44;;;;;;;;;;;;;;;;;;5073116;28;20293;-74
2022/04/19 09:30:15;;;;;;;;;;;;;;;;;;5073710;28;19923;-74
2022/04/19 09:32:41;;;;;;;;;;;;;;;;;;5072269;28;19924;-74
2022/04/19 09:35:06;;;;;;;;;;;;;;;;;;5088185;28;19916;-74
2022/04/19 09:37:32;;;;;;;;;;;;;;;;;;5091648;28;19916;-74
2022/04/19 09:39:58;;;;;;;;;;;;;;;;;;5093185;28;20079;-75
2022/04/19 09:42:26;;;;;;;;;;;;;;;;;;5092240;28;20320;-73
2022/04/19 09:44:51;;;;;;;;;;;;;;;;;;5092451;28;20315;-74
2022/04/19 09:47:17;;;;;;;;;;;;;;;;;;5093386;28;19963;-74
2022/04/19 09:49:45;;;;;;;;;;;;;;;;;;5093428;28;19917;-73
2022/04/19 09:52:33;;;;;;;;;;;;;;;;;;5093559;28;20429;-73
2022/04/19 09:55:09;;;;;;;;;;;;;;;;;;5082922;28;19978;-76
2022/04/19 09:57:39;;;;;;;;;;;;;;;;;;5094766;28;19920;-75
2022/04/19 10:00:05;;;;;;;;;;;;;;;;;;5097345;28;20373;-74
2022/04/19 10:08:14;;;;;;;;;;;;;;;;;;5097321;28;19961;-75
2022/04/19 10:10:40;;;;;;;;;;;;;;;;;;5097207;28;20405;-74
2022/04/19 10:13:06;;;;;;;;;;;;;;;;;;5097192;28;20347;-75
2022/04/19 10:15:32;;;;;;;;;;;;;;;;;;5096481;28;19916;-75
2022/04/19 10:17:57;;;;;;;;;;;;;;;;;;5097047;28;19927;-76
2022/04/19 10:20:32;;;;;;;;;;;;;;;;;;5095632;28;19924;-73
2022/04/19 10:23:02;;;;;;;;;;;;;;;;;;5079296;28;19916;-74
2022/04/19 10:25:35;;;;;;;;;;;;;;;;;;5095974;28;19962;-75
2022/04/19 10:28:04;;;;;;;;;;;;;;;;;;5095606;28;20355;-75
2022/04/19 10:30:32;;;;;;;;;;;;;;;;;;5097800;28;19923;-75
2022/04/19 10:32:57;;;;;;;;;;;;;;;;;;5098317;28;19939;-75
2022/04/19 10:35:23;;;;;;;;;;;;;;;;;;5097548;28;20592;-74
2022/04/19 10:38:08;;;;;;;;;;;;;;;;;;5092003;28;19920;-75
2022/04/19 10:40:50;;;;;;;;;;;;;;;;;;5077239;28;19943;-75
2022/04/19 10:43:15;;;;;;;;;;;;;;;;;;5077547;28;20373;-77
2022/04/19 10:45:42;;;;;;;;;;;;;;;;;;5078146;28;19912;-76
2022/04/19 10:48:08;;;;;;;;;;;;;;;;;;5075465;28;19916;-74
2022/04/19 10:50:35;;;;;;;;;;;;;;;;;;5076755;28;19971;-76
2022/04/19 10:53:04;;;;;;;;;;;;;;;;;;5076525;28;19973;-75
2022/04/19 10:55:37;;;;;;;;;;;;;;;;;;5076489;28;19924;-76
2022/04/19 11:00:56;;;;;;;;;;;;;;;;;;5075128;28;19921;-75
2022/04/19 11:03:24;;;;;;;;;;;;;;;;;;5076346;28;19916;-74
2022/04/19 11:05:56;;;;;;;;;;;;;;;;;;5075784;28;19920;-74
2022/04/19 11:08:25;;;;;;;;;;;;;;;;;;5087884;28;19974;-74
2022/04/19 11:10:56;;;;;;;;;;;;;;;;;;5076072;28;19917;-74
2022/04/19 11:13:29;;;;;;;;;;;;;;;;;;5075548;28;20006;-75
2022/04/19 11:15:57;;;;;;;;;;;;;;;;;;5088504;28;19916;-75
2022/04/19 11:18:23;;;;;;;;;;;;;;;;;;5077044;28;19920;-77
2022/04/19 11:20:49;;;;;;;;;;;;;;;;;;5076175;28;19919;-75
2022/04/19 11:23:18;;;;;;;;;;;;;;;;;;5075841;28;19917;-76
2022/04/19 11:25:45;;;;;;;;;;;;;;;;;;5076309;28;19920;-75
2022/04/19 11:28:11;;;;;;;;;;;;;;;;;;5076771;28;19916;-75
2022/04/19 11:30:37;;;;;;;;;;;;;;;;;;5076782;28;20418;-76
2022/04/19 11:33:04;;;;;;;;;;;;;;;;;;5077629;28;19920;-78
2022/04/19 11:35:32;;;;;;;;;;;;;;;;;;5080394;28;19917;-78
2022/04/19 11:38:01;;;;;;;;;;;;;;;;;;5078691;28;20311;-78
2022/04/19 11:48:45;;;;;;;;;;;;;;;;;;5116919;28;19916;-78
2022/04/19 11:51:14;;;;;;;;;;;;;;;;;;5117517;28;19922;-77
2022/04/19 11:53:41;;;;;;;;;;;;;;;;;;5118056;28;19981;-79
2022/04/19 11:56:06;;;;;;;;;;;;;;;;;;5114326;28;19926;-77
2022/04/19 11:58:33;;;;;;;;;;;;;;;;;;5119028;28;19920;-80
2022/04/19 12:00:59;;;;;;;;;;;;;;;;;;5117929;27;19923;-75
2022/04/19 12:03:28;;;;;;;;;;;;;;;;;;5093781;28;19939;-75
2022/04/19 12:06:04;;;;;;;;;;;;;;;;;;5094995;28;19927;-76
2022/04/19 12:08:40;;;;;;;;;;;;;;;;;;5094692;28;19991;-76
2022/04/19 12:11:07;;;;;;;;;;;;;;;;;;5095089;28;20015;-77
2022/04/19 12:13:33;;;;;;;;;;;;;;;;;;5094753;28;19916;-77
2022/04/19 12:16:00;;;;;;;;;;;;;;;;;;5089331;28;19916;-77
2022/04/19 12:18:49;;;;;;;;;;;;;;;;;;5074008;28;19916;-77
2022/04/19 12:21:14;;;;;;;;;;;;;;;;;;5073522;28;19966;-77
2022/04/19 12:23:40;;;;;;;;;;;;;;;;;;5080198;28;19959;-77
2022/04/19 12:26:10;;;;;;;;;;;;;;;;;;5094504;28;19916;-76
2022/04/19 12:28:43;;;;;;;;;;;;;;;;;;5094751;28;20342;-76
2022/04/19 12:31:26;;;;;;;;;;;;;;;;;;5094274;28;19969;-76
2022/04/19 12:33:52;;;;;;;;;;;;;;;;;;5076221;28;19916;-76
2022/04/19 12:36:22;;;;;;;;;;;;;;;;;;5093462;28;19965;-76
2022/04/19 12:38:56;;;;;;;;;;;;;;;;;;5094146;28;20361;-76
2022/04/19 12:41:22;;;;;;;;;;;;;;;;;;5076151;28;19971;-76
2022/04/19 12:43:47;;;;;;;;;;;;;;;;;;5094125;28;19919;-76
2022/04/19 12:46:14;;;;;;;;;;;;;;;;;;5093870;28;20271;-76
2022/04/19 12:48:40;;;;;;;;;;;;;;;;;;5094539;28;19966;-76
2022/04/19 12:51:05;;;;;;;;;;;;;;;;;;5096597;28;19916;-76
2022/04/19 12:53:33;;;;;;;;;;;;;;;;;;5094181;28;19916;-76
2022/04/19 12:56:08;;;;;;;;;;;;;;;;;;5093799;28;20396;-76
2022/04/19 12:58:41;;;;;;;;;;;;;;;;;;5094079;28;20022;-76
2022/04/19 13:01:06;;;;;;;;;;;;;;;;;;5094156;28;19916;-76
2022/04/19 13:03:32;;;;;;;;;;;;;;;;;;5092943;28;20003;-76
2022/04/19 13:14:09;;;;;;;;;;;;;;;;;;5091462;28;19961;-76
2022/04/19 13:16:34;;;;;;;;;;;;;;;;;;5089972;28;19916;-76
2022/04/19 13:19:00;;;;;;;;;;;;;;;;;;5091385;28;19924;-76
2022/04/19 13:21:26;;;;;;;;;;;;;;;;;;5090922;28;19924;-76
2022/04/19 13:23:51;;;;;;;;;;;;;;;;;;5092283;28;19916;-76
2022/04/19 13:26:17;;;;;;;;;;;;;;;;;;5093798;28;19916;-76
2022/04/19 13:28:42;;;;;;;;;;;;;;;;;;5094111;28;20002;-76
2022/04/19 13:31:07;;;;;;;;;;;;;;;;;;5093234;28;19916;-76
2022/04/19 13:33:32;;;;;;;;;;;;;;;;;;5097574;28;19922;-76
2022/04/19 13:35:59;;;;;;;;;;;;;;;;;;5096403;28;19916;-76
2022/04/19 13:38:24;;;;;;;;;;;;;;;;;;5095501;28;19922;-75
2022/04/19 13:40:50;;;;;;;;;;;;;;;;;;5095692;28;19920;-76
2022/04/19 13:43:15;;;;;;;;;;;;;;;;;;5096658;28;19916;-76
2022/04/19 13:45:40;;;;;;;;;;;;;;;;;;5095663;28;19916;-76
2022/04/19 13:48:06;;;;;;;;;;;;;;;;;;5096571;28;19937;-76
2022/04/19 13:50:31;;;;;;;;;;;;;;;;;;5095178;28;19932;-76
2022/04/19 13:52:56;;;;;;;;;;;;;;;;;;5095534;28;20278;-76
2022/04/19 13:55:22;;;;;;;;;;;;;;;;;;5095871;28;19916;-76
2022/04/19 13:57:51;;;;;;;;;;;;;;;;;;5096770;28;19955;-76
2022/04/19 14:00:16;;;;;;;;;;;;;;;;;;5096506;28;20061;-76
2022/04/19 14:02:43;;;;;;;;;;;;;;;;;;5095920;28;19943;-76
2022/04/19 14:05:09;;;;;;;;;;;;;;;;;;5097113;28;19923;-75
2022/04/19 14:07:34;;;;;;;;;;;;;;;;;;5096823;28;19916;-75
2022/04/19 14:10:00;;;;;;;;;;;;;;;;;;5096818;28;19970;-75
2022/04/19 14:12:25;;;;;;;;;;;;;;;;;;5095123;28;19923;-76
2022/04/19 14:14:51;;;;;;;;;;;;;;;;;;5096586;28;19916;-75
2022/04/19 14:17:16;;;;;;;;;;;;;;;;;;5095202;28;19916;-76
2022/04/19 14:19:42;;;;;;;;;;;;;;;;;;5095425;28;19924;-75
2022/04/19 14:22:08;;;;;;;;;;;;;;;;;;5097277;28;20409;-76
2022/04/19 14:24:33;;;;;;;;;;;;;;;;;;5098577;28;19923;-75
2022/04/19 14:26:58;;;;;;;;;;;;;;;;;;5097105;28;19916;-75
2022/04/19 14:34:51;;;;;;;;;;;;;;;;;;5091190;28;19924;-75
2022/04/19 14:37:17;;;;;;;;;;;;;;;;;;5076553;28;19916;-75
2022/04/19 14:39:42;;;;;;;;;;;;;;;;;;5076133;28;19927;-75
2022/04/19 14:42:07;;;;;;;;;;;;;;;;;;5076350;28;19961;-75
2022/04/19 14:44:33;;;;;;;;;;;;;;;;;;5073727;28;20289;-75
2022/04/19 14:46:59;;;;;;;;;;;;;;;;;;5074896;28;19916;-76
2022/04/19 14:49:24;;;;;;;;;;;;;;;;;;5079093;28;20281;-75
2022/04/19 14:54:34;;;;;;;;;;;;;;;;;;5096450;28;19959;-75
2022/04/19 14:56:59;;;;;;;;;;;;;;;;;;5089624;28;19960;-76
2022/04/19 14:59:24;;;;;;;;;;;;;;;;;;5076024;28;20378;-75
2022/04/19 15:01:50;;;;;;;;;;;;;;;;;;5074630;28;19920;-75
2022/04/19 15:04:15;;;;;;;;;;;;;;;;;;5084774;28;19916;-75
2022/04/19 15:06:40;;;;;;;;;;;;;;;;;;5095583;28;20441;-75
2022/04/19 15:09:07;;;;;;;;;;;;;;;;;;5095399;28;19916;-76
2022/04/19 15:11:32;;;;;;;;;;;;;;;;;;5094556;28;19970;-76
2022/04/19 15:13:59;;;;;;;;;;;;;;;;;;5096004;28;19920;-75
2022/04/19 15:16:24;;;;;;;;;;;;;;;;;;5095772;28;19922;-76
2022/04/19 15:18:49;;;;;;;;;;;;;;;;;;5094708;28;19923;-75
2022/04/19 15:21:15;;;;;;;;;;;;;;;;;;5095822;28;19916;-76
2022/04/19 15:23:41;;;;;;;;;;;;;;;;;;5095863;28;19916;-77
2022/04/19 15:26:06;;;;;;;;;;;;;;;;;;5095673;28;19916;-76
2022/04/19 15:28:32;;;;;;;;;;;;;;;;;;5095826;28;19919;-75
2022/04/19 15:30:59;;;;;;;;;;;;;;;;;;5095744;28;20006;-75
2022/04/19 15:33:24;;;;;;;;;;;;;;;;;;5095714;28;19963;-75
2022/04/19 15:35:50;;;;;;;;;;;;;;;;;;5095469;28;20376;-75
2022/04/19 15:38:15;;;;;;;;;;;;;;;;;;5095754;28;19915;-75
2022/04/19 15:40:41;;;;;;;;;;;;;;;;;;5094650;28;19926;-75
2022/04/19 15:43:06;;;;;;;;;;;;;;;;;;5095369;28;19916;-75
2022/04/19 15:45:34;;;;;;;;;;;;;;;;;;5095280;28;20293;-76
2022/04/19 15:47:59;;;;;;;;;;;;;;;;;;5094638;28;19965;-76
2022/04/19 15:50:24;;;;;;;;;;;;;;;;;;5095486;28;20341;-76
2022/04/19 15:52:50;;;;;;;;;;;;;;;;;;5095040;28;19938;-76
2022/04/19 15:55:15;;;;;;;;;;;;;;;;;;5093437;28;19920;-76
2022/04/19 15:57:40;;;;;;;;;;;;;;;;;;5094837;28;19927;-76
2022/04/19 16:00:06;;;;;;;;;;;;;;;;;;5093714;28;19931;-76
2022/04/19 16:02:31;;;;;;;;;;;;;;;;;;5094454;28;20010;-76
2022/04/19 16:04:56;;;;;;;;;;;;;;;;;;5095043;28;19915;-76
2022/04/19 16:07:22;;;;;;;;;;;;;;;;;;5095070;28;19916;-76
2022/04/19 16:09:49;;;;;;;;;;;;;;;;;;5094710;28;20413;-76
2022/04/19 16:12:14;;;;;;;;;;;;;;;;;;5093900;28;19951;-77
2022/04/19 16:14:39;;;;;;;;;;;;;;;;;;5094396;28;19973;-75
2022/04/19 16:25:16;;;;;;;;;;;;;;;;;;5094534;28;19951;-76
2022/04/19 16:27:42;;;;;;;;;;;;;;;;;;5094364;28;19946;-75
2022/04/19 16:30:08;;;;;;;;;;;;;;;;;;5093315;28;19924;-77
2022/04/19 16:32:34;;;;;;;;;;;;;;;;;;5095929;28;19916;-77
2022/04/19 16:34:59;;;;;;;;;;;;;;;;;;5095006;28;19927;-77
2022/04/19 16:37:25;;;;;;;;;;;;;;;;;;5093826;28;19965;-78
2022/04/19 16:39:50;;;;;;;;;;;;;;;;;;5096043;28;20297;-78
2022/04/19 16:42:16;;;;;;;;;;;;;;;;;;5095542;28;19923;-76
2022/04/19 16:44:41;;;;;;;;;;;;;;;;;;5093482;28;20469;-76
2022/04/19 16:47:06;;;;;;;;;;;;;;;;;;5094095;28;19922;-76
2022/04/19 16:49:34;;;;;;;;;;;;;;;;;;5096325;28;19998;-79
2022/04/19 16:51:59;;;;;;;;;;;;;;;;;;5097608;28;19938;-77
2022/04/19 16:54:26;;;;;;;;;;;;;;;;;;5098703;28;19920;-78
2022/04/19 16:57:18;;;;;;;;;;;;;;;;;;5098976;28;19920;-82
2022/04/19 16:59:43;;;;;;;;;;;;;;;;;;5101222;28;20422;-79
2022/04/19 17:02:08;;;;;;;;;;;;;;;;;;5079000;28;20007;-78
2022/04/19 17:04:34;;;;;;;;;;;;;;;;;;5109659;28;19995;-79
2022/04/19 17:07:00;;;;;;;;;;;;;;;;;;5120104;28;20014;-78
2022/04/19 17:09:27;;;;;;;;;;;;;;;;;;5120784;28;19916;-79
2022/04/19 17:11:52;;;;;;;;;;;;;;;;;;5121029;28;19934;-79
2022/04/19 17:14:20;;;;;;;;;;;;;;;;;;5120706;28;19916;-78
2022/04/19 17:16:46;;;;;;;;;;;;;;;;;;5120523;28;20346;-78
2022/04/19 17:19:11;;;;;;;;;;;;;;;;;;5119639;28;19920;-78
2022/04/19 17:21:36;;;;;;;;;;;;;;;;;;5119045;28;19916;-78
2022/04/19 17:24:04;;;;;;;;;;;;;;;;;;5120333;28;19965;-78
2022/04/19 17:26:29;;;;;;;;;;;;;;;;;;5120907;28;20060;-78
2022/04/19 17:28:55;;;;;;;;;;;;;;;;;;5121380;28;20392;-78
2022/04/19 17:31:21;;;;;;;;;;;;;;;;;;5121594;28;19947;-78
2022/04/19 17:33:46;;;;;;;;;;;;;;;;;;5111660;28;19964;-78
2022/04/19 17:36:36;;;;;;;;;;;;;;;;;;5103512;28;19955;-79
2022/04/19 17:39:01;;;;;;;;;;;;;;;;;;5104957;28;19920;-79
2022/04/19 17:41:27;;;;;;;;;;;;;;;;;;5105450;28;19916;-80
2022/04/19 17:43:53;;;;;;;;;;;;;;;;;;5103263;28;20298;-79
2022/04/19 17:46:19;;;;;;;;;;;;;;;;;;5104355;28;19917;-80
2022/04/19 17:48:44;;;;;;;;;;;;;;;;;;5104579;28;19915;-79